Información del aeropuerto LESB

Información de pista
Pista 06 Longitud 3281 ft Anchura 72 ft
Elevación 0 ft Umbral 0 ft Rumbo 49
Pista 24 Longitud 3281 ft Anchura 72 ft
Elevación 0 ft Umbral 0 ft Rumbo 229
Frecuencias del aeropuerto
Tipo APP Nombre PALMA APP Frecuencia 119.4 MHZ
Tipo OPS Nombre PALMA OPS Frecuencia 130.25 MHZ
Tipo TWR Nombre PALMA TWR Frecuencia 118.3 MHZ
Radioayudas del aeropuerto
Información meteorológica del aeropuerto y NOTAM
ADDS - METARS form results

(1716 UTC 15 August 2020)
Data provider http://aviationweather.gov/metar/data/
 
METAR text: LESB 151700Z AUTO 19008KT CAVOK 28/22 Q1012
Conditions at: LESB (MALLORCA SON BON, ES) observed 1700 UTC 15 August 2020
Temperature: 28.0°C (82°F)
Dewpoint: 22.0°C (72°F) [RH = 70%]
Pressure (altimeter): 29.88 inches Hg (1012.0 mb)
Winds: from the S (190 degrees) at 9 MPH (8 knots; 4.1 m/s)
Visibility: 6 or more miles (10+ km)
Ceiling: ceiling and visibility are OK
Clouds: unknown
Weather: no significant weather observed at this time

METAR text: LESB 151630Z AUTO 21009KT 170V240 CAVOK 29/22 Q1012
Conditions at: LESB (MALLORCA SON BON, ES) observed 1630 UTC 15 August 2020
Temperature: 29.0°C (84°F)
Dewpoint: 22.0°C (72°F) [RH = 66%]
Pressure (altimeter): 29.88 inches Hg (1012.0 mb)
Winds: from the SSW (210 degrees) at 10 MPH (9 knots; 4.6 m/s)
Visibility: 6 or more miles (10+ km)
Ceiling: ceiling and visibility are OK
Clouds: unknown
Weather: no significant weather observed at this time